sensor_id;sensor_type;location;lat;lon;timestamp;temperature;humidity
69335;SHT31;56477;52.742;15.242;2024-01-07T00:01:24;-3.19;84.97
69335;SHT31;56477;52.742;15.242;2024-01-07T00:03:51;-3.23;84.89
69335;SHT31;56477;52.742;15.242;2024-01-07T00:06:18;-3.27;84.79
69335;SHT31;56477;52.742;15.242;2024-01-07T00:08:44;-3.31;84.91
69335;SHT31;56477;52.742;15.242;2024-01-07T00:11:10;-3.36;85.43
69335;SHT31;56477;52.742;15.242;2024-01-07T00:13:36;-3.37;85.67
69335;SHT31;56477;52.742;15.242;2024-01-07T00:16:02;-3.44;85.39
69335;SHT31;56477;52.742;15.242;2024-01-07T00:18:28;-3.46;85.43
69335;SHT31;56477;52.742;15.242;2024-01-07T00:20:54;-3.47;85.58
69335;SHT31;56477;52.742;15.242;2024-01-07T00:23:20;-3.46;85.32
69335;SHT31;56477;52.742;15.242;2024-01-07T00:25:49;-3.50;85.66
69335;SHT31;56477;52.742;15.242;2024-01-07T00:28:15;-3.50;85.44
69335;SHT31;56477;52.742;15.242;2024-01-07T00:30:41;-3.64;85.78
69335;SHT31;56477;52.742;15.242;2024-01-07T00:33:07;-3.59;85.92
69335;SHT31;56477;52.742;15.242;2024-01-07T00:35:33;-3.62;85.68
69335;SHT31;56477;52.742;15.242;2024-01-07T00:37:59;-3.64;85.54
69335;SHT31;56477;52.742;15.242;2024-01-07T00:40:25;-3.65;85.78
69335;SHT31;56477;52.742;15.242;2024-01-07T00:42:52;-3.71;85.56
69335;SHT31;56477;52.742;15.242;2024-01-07T00:45:18;-3.69;85.67
69335;SHT31;56477;52.742;15.242;2024-01-07T00:47:44;-3.67;85.64
69335;SHT31;56477;52.742;15.242;2024-01-07T00:50:10;-3.68;85.69
69335;SHT31;56477;52.742;15.242;2024-01-07T00:52:36;-3.75;86.06
69335;SHT31;56477;52.742;15.242;2024-01-07T00:55:06;-3.72;86.21
69335;SHT31;56477;52.742;15.242;2024-01-07T00:57:32;-3.78;85.78
69335;SHT31;56477;52.742;15.242;2024-01-07T01:00:00;-3.82;85.73
69335;SHT31;56477;52.742;15.242;2024-01-07T01:02:26;-3.85;85.97
69335;SHT31;56477;52.742;15.242;2024-01-07T01:04:52;-3.83;86.13
69335;SHT31;56477;52.742;15.242;2024-01-07T01:07:18;-3.79;86.27
69335;SHT31;56477;52.742;15.242;2024-01-07T01:09:44;-3.83;86.32
69335;SHT31;56477;52.742;15.242;2024-01-07T01:12:10;-3.85;86.34
69335;SHT31;56477;52.742;15.242;2024-01-07T01:14:36;-3.82;86.58
69335;SHT31;56477;52.742;15.242;2024-01-07T01:17:01;-3.82;86.36
69335;SHT31;56477;52.742;15.242;2024-01-07T01:19:28;-3.83;85.95
69335;SHT31;56477;52.742;15.242;2024-01-07T01:21:53;-3.89;85.83
69335;SHT31;56477;52.742;15.242;2024-01-07T01:24:19;-3.90;86.07
69335;SHT31;56477;52.742;15.242;2024-01-07T01:26:45;-3.92;86.37
69335;SHT31;56477;52.742;15.242;2024-01-07T01:29:11;-3.89;86.17
69335;SHT31;56477;52.742;15.242;2024-01-07T01:31:37;-3.89;86.34
69335;SHT31;56477;52.742;15.242;2024-01-07T01:34:03;-3.92;86.20
69335;SHT31;56477;52.742;15.242;2024-01-07T01:36:31;-3.92;86.48
69335;SHT31;56477;52.742;15.242;2024-01-07T01:38:57;-3.95;86.32
69335;SHT31;56477;52.742;15.242;2024-01-07T01:41:23;-3.98;86.09
69335;SHT31;56477;52.742;15.242;2024-01-07T01:43:49;-3.96;86.13
69335;SHT31;56477;52.742;15.242;2024-01-07T01:46:15;-3.98;86.21
69335;SHT31;56477;52.742;15.242;2024-01-07T01:48:42;-3.96;86.27
69335;SHT31;56477;52.742;15.242;2024-01-07T01:51:08;-3.98;86.10
69335;SHT31;56477;52.742;15.242;2024-01-07T01:53:34;-4.00;86.10
69335;SHT31;56477;52.742;15.242;2024-01-07T01:56:01;-4.03;87.19
69335;SHT31;56477;52.742;15.242;2024-01-07T01:58:29;-4.02;86.44
69335;SHT31;56477;52.742;15.242;2024-01-07T02:00:56;-4.03;86.48
69335;SHT31;56477;52.742;15.242;2024-01-07T02:03:22;-4.03;86.11
69335;SHT31;56477;52.742;15.242;2024-01-07T02:05:48;-4.03;86.27
69335;SHT31;56477;52.742;15.242;2024-01-07T02:08:19;-4.13;86.52
69335;SHT31;56477;52.742;15.242;2024-01-07T02:10:46;-4.07;86.67
69335;SHT31;56477;52.742;15.242;2024-01-07T02:13:12;-4.05;86.43
69335;SHT31;56477;52.742;15.242;2024-01-07T02:15:37;-4.05;86.55
69335;SHT31;56477;52.742;15.242;2024-01-07T02:18:04;-4.07;86.95
69335;SHT31;56477;52.742;15.242;2024-01-07T02:20:30;-4.07;86.96
69335;SHT31;56477;52.742;15.242;2024-01-07T02:22:56;-4.13;87.08
69335;SHT31;56477;52.742;15.242;2024-01-07T02:25:24;-4.13;87.24
69335;SHT31;56477;52.742;15.242;2024-01-07T02:27:51;-4.16;87.04
69335;SHT31;56477;52.742;15.242;2024-01-07T02:30:16;-4.17;87.10
69335;SHT31;56477;52.742;15.242;2024-01-07T02:32:43;-4.19;87.33
69335;SHT31;56477;52.742;15.242;2024-01-07T02:35:09;-4.19;87.41
69335;SHT31;56477;52.742;15.242;2024-01-07T02:37:35;-4.17;87.44
69335;SHT31;56477;52.742;15.242;2024-01-07T02:40:01;-4.20;87.52
69335;SHT31;56477;52.742;15.242;2024-01-07T02:42:28;-4.21;87.70
69335;SHT31;56477;52.742;15.242;2024-01-07T02:44:53;-4.26;87.63
69335;SHT31;56477;52.742;15.242;2024-01-07T02:47:19;-4.31;87.83
69335;SHT31;56477;52.742;15.242;2024-01-07T02:49:45;-4.36;88.20
69335;SHT31;56477;52.742;15.242;2024-01-07T02:52:11;-4.41;88.28
69335;SHT31;56477;52.742;15.242;2024-01-07T02:54:37;-4.38;87.97
69335;SHT31;56477;52.742;15.242;2024-01-07T02:57:03;-4.37;87.91
69335;SHT31;56477;52.742;15.242;2024-01-07T02:59:29;-4.38;87.90
69335;SHT31;56477;52.742;15.242;2024-01-07T03:01:55;-4.36;87.85
69335;SHT31;56477;52.742;15.242;2024-01-07T03:04:21;-4.38;87.83
69335;SHT31;56477;52.742;15.242;2024-01-07T03:06:47;-4.36;88.05
69335;SHT31;56477;52.742;15.242;2024-01-07T03:09:13;-4.34;87.58
69335;SHT31;56477;52.742;15.242;2024-01-07T03:11:40;-4.33;87.30
69335;SHT31;56477;52.742;15.242;2024-01-07T03:14:06;-4.30;87.49
69335;SHT31;56477;52.742;15.242;2024-01-07T03:16:33;-4.30;87.37
69335;SHT31;56477;52.742;15.242;2024-01-07T03:18:58;-4.33;87.31
69335;SHT31;56477;52.742;15.242;2024-01-07T03:21:25;-4.28;87.30
69335;SHT31;56477;52.742;15.242;2024-01-07T03:23:51;-4.30;87.41
69335;SHT31;56477;52.742;15.242;2024-01-07T03:26:19;-4.36;87.07
69335;SHT31;56477;52.742;15.242;2024-01-07T03:28:45;-4.33;87.58
69335;SHT31;56477;52.742;15.242;2024-01-07T03:31:13;-4.34;87.58
69335;SHT31;56477;52.742;15.242;2024-01-07T03:33:40;-4.34;87.65
69335;SHT31;56477;52.742;15.242;2024-01-07T03:36:08;-4.34;87.28
69335;SHT31;56477;52.742;15.242;2024-01-07T03:38:34;-4.41;87.32
69335;SHT31;56477;52.742;15.242;2024-01-07T03:41:01;-4.46;87.45
69335;SHT31;56477;52.742;15.242;2024-01-07T03:43:26;-4.48;87.53
69335;SHT31;56477;52.742;15.242;2024-01-07T03:45:52;-4.43;87.59
69335;SHT31;56477;52.742;15.242;2024-01-07T03:48:18;-4.41;87.70
69335;SHT31;56477;52.742;15.242;2024-01-07T03:50:45;-4.46;87.25
69335;SHT31;56477;52.742;15.242;2024-01-07T03:53:12;-4.48;87.13
69335;SHT31;56477;52.742;15.242;2024-01-07T03:55:38;-4.46;87.24
69335;SHT31;56477;52.742;15.242;2024-01-07T03:58:05;-4.43;87.26
69335;SHT31;56477;52.742;15.242;2024-01-07T04:00:32;-4.46;86.95
69335;SHT31;56477;52.742;15.242;2024-01-07T04:02:58;-4.43;86.77
69335;SHT31;56477;52.742;15.242;2024-01-07T04:05:24;-4.36;86.72
69335;SHT31;56477;52.742;15.242;2024-01-07T04:07:50;-4.37;86.63
69335;SHT31;56477;52.742;15.242;2024-01-07T04:10:17;-4.37;86.29
69335;SHT31;56477;52.742;15.242;2024-01-07T04:12:43;-4.30;86.28
69335;SHT31;56477;52.742;15.242;2024-01-07T04:15:10;-4.17;85.83
69335;SHT31;56477;52.742;15.242;2024-01-07T04:17:36;-4.11;85.34
69335;SHT31;56477;52.742;15.242;2024-01-07T04:20:03;-4.03;85.15
69335;SHT31;56477;52.742;15.242;2024-01-07T04:22:29;-4.00;84.62
69335;SHT31;56477;52.742;15.242;2024-01-07T04:24:55;-3.95;85.01
69335;SHT31;56477;52.742;15.242;2024-01-07T04:27:21;-3.93;84.98
69335;SHT31;56477;52.742;15.242;2024-01-07T04:29:47;-3.92;84.99
69335;SHT31;56477;52.742;15.242;2024-01-07T04:32:13;-3.88;84.92
69335;SHT31;56477;52.742;15.242;2024-01-07T04:34:39;-3.82;84.98
69335;SHT31;56477;52.742;15.242;2024-01-07T04:37:05;-3.81;85.10
69335;SHT31;56477;52.742;15.242;2024-01-07T04:39:31;-3.72;84.69
69335;SHT31;56477;52.742;15.242;2024-01-07T04:41:57;-3.72;84.35
69335;SHT31;56477;52.742;15.242;2024-01-07T04:44:23;-3.75;84.47
69335;SHT31;56477;52.742;15.242;2024-01-07T04:46:49;-3.69;84.63
69335;SHT31;56477;52.742;15.242;2024-01-07T04:49:15;-3.65;84.59
69335;SHT31;56477;52.742;15.242;2024-01-07T04:51:41;-3.61;84.11
69335;SHT31;56477;52.742;15.242;2024-01-07T04:54:07;-3.59;83.43
69335;SHT31;56477;52.742;15.242;2024-01-07T04:56:33;-3.57;83.45
69335;SHT31;56477;52.742;15.242;2024-01-07T04:58:59;-3.62;83.65
69335;SHT31;56477;52.742;15.242;2024-01-07T05:01:25;-3.59;83.82
69335;SHT31;56477;52.742;15.242;2024-01-07T05:03:51;-3.55;83.80
69335;SHT31;56477;52.742;15.242;2024-01-07T05:06:17;-3.54;83.83
69335;SHT31;56477;52.742;15.242;2024-01-07T05:08:43;-3.57;84.00
69335;SHT31;56477;52.742;15.242;2024-01-07T05:11:09;-3.58;83.80
69335;SHT31;56477;52.742;15.242;2024-01-07T05:13:35;-3.57;83.06
69335;SHT31;56477;52.742;15.242;2024-01-07T05:16:01;-3.64;82.50
69335;SHT31;56477;52.742;15.242;2024-01-07T05:18:28;-3.67;82.65
69335;SHT31;56477;52.742;15.242;2024-01-07T05:20:54;-3.67;82.35
69335;SHT31;56477;52.742;15.242;2024-01-07T05:23:20;-3.79;82.44
69335;SHT31;56477;52.742;15.242;2024-01-07T05:25:46;-3.82;83.41
69335;SHT31;56477;52.742;15.242;2024-01-07T05:28:12;-3.78;84.17
69335;SHT31;56477;52.742;15.242;2024-01-07T05:30:39;-3.76;84.13
69335;SHT31;56477;52.742;15.242;2024-01-07T05:33:05;-3.78;84.11
69335;SHT31;56477;52.742;15.242;2024-01-07T05:35:31;-3.79;83.98
69335;SHT31;56477;52.742;15.242;2024-01-07T05:37:57;-3.78;83.77
69335;SHT31;56477;52.742;15.242;2024-01-07T05:40:24;-3.76;83.70
69335;SHT31;56477;52.742;15.242;2024-01-07T05:42:50;-3.72;84.09
69335;SHT31;56477;52.742;15.242;2024-01-07T05:45:16;-3.69;84.03
69335;SHT31;56477;52.742;15.242;2024-01-07T05:47:42;-3.72;84.14
69335;SHT31;56477;52.742;15.242;2024-01-07T05:50:08;-3.75;84.43
69335;SHT31;56477;52.742;15.242;2024-01-07T05:52:34;-3.72;84.51
69335;SHT31;56477;52.742;15.242;2024-01-07T05:55:00;-3.72;84.36
69335;SHT31;56477;52.742;15.242;2024-01-07T05:57:26;-3.64;84.30
69335;SHT31;56477;52.742;15.242;2024-01-07T05:59:52;-3.69;84.25
69335;SHT31;56477;52.742;15.242;2024-01-07T06:02:18;-3.62;84.38
69335;SHT31;56477;52.742;15.242;2024-01-07T06:04:44;-3.61;84.37
69335;SHT31;56477;52.742;15.242;2024-01-07T06:07:10;-3.62;84.72
69335;SHT31;56477;52.742;15.242;2024-01-07T06:09:36;-3.57;84.20
69335;SHT31;56477;52.742;15.242;2024-01-07T06:12:02;-3.52;84.16
69335;SHT31;56477;52.742;15.242;2024-01-07T06:14:28;-3.54;84.41
69335;SHT31;56477;52.742;15.242;2024-01-07T06:16:54;-3.58;84.89
69335;SHT31;56477;52.742;15.242;2024-01-07T06:19:20;-3.57;84.58
69335;SHT31;56477;52.742;15.242;2024-01-07T06:21:46;-3.51;84.57
69335;SHT31;56477;52.742;15.242;2024-01-07T06:24:12;-3.47;84.94
69335;SHT31;56477;52.742;15.242;2024-01-07T06:26:38;-3.40;85.20
69335;SHT31;56477;52.742;15.242;2024-01-07T06:29:04;-3.44;84.77
69335;SHT31;56477;52.742;15.242;2024-01-07T06:31:30;-3.47;84.96
69335;SHT31;56477;52.742;15.242;2024-01-07T06:33:56;-3.43;85.02
69335;SHT31;56477;52.742;15.242;2024-01-07T06:36:26;-3.40;85.14
69335;SHT31;56477;52.742;15.242;2024-01-07T06:38:52;-3.36;84.46
69335;SHT31;56477;52.742;15.242;2024-01-07T06:41:19;-3.33;84.63
69335;SHT31;56477;52.742;15.242;2024-01-07T06:43:45;-3.31;84.66
69335;SHT31;56477;52.742;15.242;2024-01-07T06:46:11;-3.30;84.84
69335;SHT31;56477;52.742;15.242;2024-01-07T06:48:37;-3.24;84.60
69335;SHT31;56477;52.742;15.242;2024-01-07T06:51:03;-3.24;84.67
69335;SHT31;56477;52.742;15.242;2024-01-07T06:53:29;-3.19;84.70
69335;SHT31;56477;52.742;15.242;2024-01-07T06:55:55;-3.19;85.17
69335;SHT31;56477;52.742;15.242;2024-01-07T06:58:21;-3.26;85.41
69335;SHT31;56477;52.742;15.242;2024-01-07T07:00:46;-3.20;85.64
69335;SHT31;56477;52.742;15.242;2024-01-07T07:03:13;-3.23;85.51
69335;SHT31;56477;52.742;15.242;2024-01-07T07:05:39;-3.24;85.39
69335;SHT31;56477;52.742;15.242;2024-01-07T07:08:05;-3.21;85.98
69335;SHT31;56477;52.742;15.242;2024-01-07T07:10:31;-3.20;86.59
69335;SHT31;56477;52.742;15.242;2024-01-07T07:12:57;-3.26;86.25
69335;SHT31;56477;52.742;15.242;2024-01-07T07:15:23;-3.24;86.48
69335;SHT31;56477;52.742;15.242;2024-01-07T07:17:52;-3.23;86.16
69335;SHT31;56477;52.742;15.242;2024-01-07T07:20:18;-3.21;86.34
69335;SHT31;56477;52.742;15.242;2024-01-07T07:22:45;-3.21;86.83
69335;SHT31;56477;52.742;15.242;2024-01-07T07:25:11;-3.16;86.38
69335;SHT31;56477;52.742;15.242;2024-01-07T07:27:37;-3.21;86.45
69335;SHT31;56477;52.742;15.242;2024-01-07T07:30:04;-3.17;87.23
69335;SHT31;56477;52.742;15.242;2024-01-07T07:32:31;-3.17;86.79
69335;SHT31;56477;52.742;15.242;2024-01-07T07:34:56;-3.09;86.89
69335;SHT31;56477;52.742;15.242;2024-01-07T07:37:22;-3.07;86.84
69335;SHT31;56477;52.742;15.242;2024-01-07T07:39:48;-3.10;86.97
69335;SHT31;56477;52.742;15.242;2024-01-07T07:42:15;-3.23;87.82
69335;SHT31;56477;52.742;15.242;2024-01-07T07:44:41;-3.26;86.83
69335;SHT31;56477;52.742;15.242;2024-01-07T07:47:08;-3.19;86.37
69335;SHT31;56477;52.742;15.242;2024-01-07T07:49:37;-3.19;86.41
69335;SHT31;56477;52.742;15.242;2024-01-07T07:52:09;-3.11;86.72
69335;SHT31;56477;52.742;15.242;2024-01-07T07:54:37;-3.06;87.04
69335;SHT31;56477;52.742;15.242;2024-01-07T07:57:03;-3.01;87.37
69335;SHT31;56477;52.742;15.242;2024-01-07T07:59:29;-2.92;86.74
69335;SHT31;56477;52.742;15.242;2024-01-07T08:01:55;-2.92;86.99
69335;SHT31;56477;52.742;15.242;2024-01-07T08:04:21;-2.90;87.12
69335;SHT31;56477;52.742;15.242;2024-01-07T08:06:47;-2.88;86.21
69335;SHT31;56477;52.742;15.242;2024-01-07T08:09:13;-2.86;86.45
69335;SHT31;56477;52.742;15.242;2024-01-07T08:11:40;-2.86;86.54
69335;SHT31;56477;52.742;15.242;2024-01-07T08:14:06;-2.78;86.53
69335;SHT31;56477;52.742;15.242;2024-01-07T08:16:32;-2.72;86.82
69335;SHT31;56477;52.742;15.242;2024-01-07T08:18:58;-2.69;86.55
69335;SHT31;56477;52.742;15.242;2024-01-07T08:21:24;-2.55;86.36
69335;SHT31;56477;52.742;15.242;2024-01-07T08:23:50;-2.55;86.42
69335;SHT31;56477;52.742;15.242;2024-01-07T08:26:20;-2.62;86.27
69335;SHT31;56477;52.742;15.242;2024-01-07T08:28:45;-2.66;86.65
69335;SHT31;56477;52.742;15.242;2024-01-07T08:31:12;-2.59;86.61
69335;SHT31;56477;52.742;15.242;2024-01-07T08:33:37;-2.58;86.23
69335;SHT31;56477;52.742;15.242;2024-01-07T08:36:04;-2.65;86.86
69335;SHT31;56477;52.742;15.242;2024-01-07T08:38:30;-2.57;86.79
69335;SHT31;56477;52.742;15.242;2024-01-07T08:40:56;-2.57;86.99
69335;SHT31;56477;52.742;15.242;2024-01-07T08:43:22;-2.55;86.66
69335;SHT31;56477;52.742;15.242;2024-01-07T08:45:48;-2.49;86.66
69335;SHT31;56477;52.742;15.242;2024-01-07T08:48:14;-2.57;86.70
69335;SHT31;56477;52.742;15.242;2024-01-07T08:50:41;-2.57;86.69
69335;SHT31;56477;52.742;15.242;2024-01-07T08:53:06;-2.58;87.10
69335;SHT31;56477;52.742;15.242;2024-01-07T08:55:32;-2.58;87.35
69335;SHT31;56477;52.742;15.242;2024-01-07T08:57:59;-2.52;87.56
69335;SHT31;56477;52.742;15.242;2024-01-07T09:00:25;-2.54;87.17
69335;SHT31;56477;52.742;15.242;2024-01-07T09:02:53;-2.45;87.19
69335;SHT31;56477;52.742;15.242;2024-01-07T09:05:19;-2.51;86.87
69335;SHT31;56477;52.742;15.242;2024-01-07T09:07:44;-2.48;86.85
69335;SHT31;56477;52.742;15.242;2024-01-07T09:10:11;-2.47;87.08
69335;SHT31;56477;52.742;15.242;2024-01-07T09:12:39;-2.38;86.59
69335;SHT31;56477;52.742;15.242;2024-01-07T09:15:06;-2.34;86.88
69335;SHT31;56477;52.742;15.242;2024-01-07T09:17:36;-2.31;86.51
69335;SHT31;56477;52.742;15.242;2024-01-07T09:20:04;-2.28;86.55
69335;SHT31;56477;52.742;15.242;2024-01-07T09:22:33;-2.23;86.53
69335;SHT31;56477;52.742;15.242;2024-01-07T09:25:05;-2.17;86.47
69335;SHT31;56477;52.742;15.242;2024-01-07T09:27:31;-2.10;86.60
69335;SHT31;56477;52.742;15.242;2024-01-07T09:29:58;-2.07;85.70
69335;SHT31;56477;52.742;15.242;2024-01-07T09:32:24;-2.06;85.98
69335;SHT31;56477;52.742;15.242;2024-01-07T09:34:51;-2.07;85.61
69335;SHT31;56477;52.742;15.242;2024-01-07T09:37:18;-2.09;85.44
69335;SHT31;56477;52.742;15.242;2024-01-07T09:39:44;-2.06;85.07
69335;SHT31;56477;52.742;15.242;2024-01-07T09:42:15;-2.00;85.16
69335;SHT31;56477;52.742;15.242;2024-01-07T09:44:42;-2.01;85.87
69335;SHT31;56477;52.742;15.242;2024-01-07T09:47:14;-1.97;85.77
69335;SHT31;56477;52.742;15.242;2024-01-07T09:49:40;-1.83;85.72
69335;SHT31;56477;52.742;15.242;2024-01-07T09:52:08;-1.79;85.13
69335;SHT31;56477;52.742;15.242;2024-01-07T09:54:38;-1.69;84.79
69335;SHT31;56477;52.742;15.242;2024-01-07T09:57:05;-1.63;84.65
69335;SHT31;56477;52.742;15.242;2024-01-07T09:59:33;-1.68;83.93
69335;SHT31;56477;52.742;15.242;2024-01-07T10:01:59;-1.68;84.15
69335;SHT31;56477;52.742;15.242;2024-01-07T10:04:26;-1.69;84.31
69335;SHT31;56477;52.742;15.242;2024-01-07T10:06:58;-1.54;83.77
69335;SHT31;56477;52.742;15.242;2024-01-07T10:09:29;-1.49;83.39
69335;SHT31;56477;52.742;15.242;2024-01-07T10:11:55;-1.48;82.67
69335;SHT31;56477;52.742;15.242;2024-01-07T10:14:21;-1.32;82.98
69335;SHT31;56477;52.742;15.242;2024-01-07T10:16:52;-0.97;82.23
69335;SHT31;56477;52.742;15.242;2024-01-07T10:19:23;-0.42;81.07
69335;SHT31;56477;52.742;15.242;2024-01-07T10:22:02;-0.03;79.00
69335;SHT31;56477;52.742;15.242;2024-01-07T10:24:46;0.36;77.38
69335;SHT31;56477;52.742;15.242;2024-01-07T10:27:14;0.65;76.02
69335;SHT31;56477;52.742;15.242;2024-01-07T10:29:40;0.86;75.00
69335;SHT31;56477;52.742;15.242;2024-01-07T10:32:06;0.84;75.03
69335;SHT31;56477;52.742;15.242;2024-01-07T10:34:34;0.43;76.64
69335;SHT31;56477;52.742;15.242;2024-01-07T10:37:02;0.33;77.28
69335;SHT31;56477;52.742;15.242;2024-01-07T10:39:29;-0.05;77.54
69335;SHT31;56477;52.742;15.242;2024-01-07T10:41:56;-0.56;78.45
69335;SHT31;56477;52.742;15.242;2024-01-07T10:44:32;-0.32;79.08
69335;SHT31;56477;52.742;15.242;2024-01-07T10:46:59;-0.55;79.54
69335;SHT31;56477;52.742;15.242;2024-01-07T10:49:27;-0.49;80.27
69335;SHT31;56477;52.742;15.242;2024-01-07T10:52:05;-0.59;80.41
69335;SHT31;56477;52.742;15.242;2024-01-07T10:54:36;-0.53;80.57
69335;SHT31;56477;52.742;15.242;2024-01-07T11:00:06;-0.69;81.17
69335;SHT31;56477;52.742;15.242;2024-01-07T11:05:34;-0.72;80.69
69335;SHT31;56477;52.742;15.242;2024-01-07T11:08:15;-0.80;82.40
69335;SHT31;56477;52.742;15.242;2024-01-07T11:10:50;-0.87;81.04
69335;SHT31;56477;52.742;15.242;2024-01-07T11:13:38;-0.79;80.93
69335;SHT31;56477;52.742;15.242;2024-01-07T11:16:09;-0.70;81.26
69335;SHT31;56477;52.742;15.242;2024-01-07T11:18:38;-0.72;80.67
69335;SHT31;56477;52.742;15.242;2024-01-07T11:21:05;-0.68;80.78
69335;SHT31;56477;52.742;15.242;2024-01-07T11:23:36;-0.79;80.14
69335;SHT31;56477;52.742;15.242;2024-01-07T11:26:06;-0.91;80.52
69335;SHT31;56477;52.742;15.242;2024-01-07T11:28:54;-0.99;80.94
69335;SHT31;56477;52.742;15.242;2024-01-07T11:34:08;-1.20;81.34
69335;SHT31;56477;52.742;15.242;2024-01-07T11:36:38;-1.21;81.53
69335;SHT31;56477;52.742;15.242;2024-01-07T11:39:04;-1.34;82.55
69335;SHT31;56477;52.742;15.242;2024-01-07T11:41:35;-1.45;82.66
69335;SHT31;56477;52.742;15.242;2024-01-07T11:44:01;-1.49;82.73
69335;SHT31;56477;52.742;15.242;2024-01-07T11:46:29;-1.52;83.16
69335;SHT31;56477;52.742;15.242;2024-01-07T11:48:57;-1.61;82.96
69335;SHT31;56477;52.742;15.242;2024-01-07T11:51:28;-1.58;83.02
69335;SHT31;56477;52.742;15.242;2024-01-07T11:54:01;-1.62;82.92
69335;SHT31;56477;52.742;15.242;2024-01-07T11:56:28;-1.70;84.68
69335;SHT31;56477;52.742;15.242;2024-01-07T11:58:54;-1.66;83.86
69335;SHT31;56477;52.742;15.242;2024-01-07T12:01:22;-1.69;84.42
69335;SHT31;56477;52.742;15.242;2024-01-07T12:03:48;-1.75;84.04
69335;SHT31;56477;52.742;15.242;2024-01-07T12:06:16;-1.70;84.65
69335;SHT31;56477;52.742;15.242;2024-01-07T12:08:44;-1.75;84.09
69335;SHT31;56477;52.742;15.242;2024-01-07T12:11:13;-1.75;85.16
69335;SHT31;56477;52.742;15.242;2024-01-07T12:13:40;-1.97;84.20
69335;SHT31;56477;52.742;15.242;2024-01-07T12:16:08;-1.87;84.79
69335;SHT31;56477;52.742;15.242;2024-01-07T12:18:38;-1.91;84.78
69335;SHT31;56477;52.742;15.242;2024-01-07T12:21:04;-1.91;85.10
69335;SHT31;56477;52.742;15.242;2024-01-07T12:23:34;-2.11;84.92
69335;SHT31;56477;52.742;15.242;2024-01-07T12:26:11;-2.03;85.47
69335;SHT31;56477;52.742;15.242;2024-01-07T12:28:38;-1.99;85.30
69335;SHT31;56477;52.742;15.242;2024-01-07T12:31:04;-2.01;85.84
69335;SHT31;56477;52.742;15.242;2024-01-07T12:33:31;-1.99;85.62
69335;SHT31;56477;52.742;15.242;2024-01-07T12:35:57;-2.04;85.17
69335;SHT31;56477;52.742;15.242;2024-01-07T12:38:27;-2.04;86.04
69335;SHT31;56477;52.742;15.242;2024-01-07T12:40:53;-2.06;85.19
69335;SHT31;56477;52.742;15.242;2024-01-07T12:43:19;-2.10;86.18
69335;SHT31;56477;52.742;15.242;2024-01-07T12:45:47;-2.11;86.21
69335;SHT31;56477;52.742;15.242;2024-01-07T12:48:13;-2.09;86.10
69335;SHT31;56477;52.742;15.242;2024-01-07T12:50:39;-2.13;86.19
69335;SHT31;56477;52.742;15.242;2024-01-07T12:53:05;-2.20;85.89
69335;SHT31;56477;52.742;15.242;2024-01-07T12:55:31;-2.17;86.02
69335;SHT31;56477;52.742;15.242;2024-01-07T12:57:58;-2.10;86.25
69335;SHT31;56477;52.742;15.242;2024-01-07T13:00:27;-2.15;86.26
69335;SHT31;56477;52.742;15.242;2024-01-07T13:02:56;-2.19;86.00
69335;SHT31;56477;52.742;15.242;2024-01-07T13:05:23;-2.15;85.95
69335;SHT31;56477;52.742;15.242;2024-01-07T13:07:49;-2.24;86.83
69335;SHT31;56477;52.742;15.242;2024-01-07T13:10:16;-2.26;86.12
69335;SHT31;56477;52.742;15.242;2024-01-07T13:12:42;-2.33;86.04
69335;SHT31;56477;52.742;15.242;2024-01-07T13:15:08;-2.26;86.11
69335;SHT31;56477;52.742;15.242;2024-01-07T13:17:34;-2.23;86.20
69335;SHT31;56477;52.742;15.242;2024-01-07T13:20:00;-2.33;86.59
69335;SHT31;56477;52.742;15.242;2024-01-07T13:22:26;-2.38;87.12
69335;SHT31;56477;52.742;15.242;2024-01-07T13:24:52;-2.45;86.26
69335;SHT31;56477;52.742;15.242;2024-01-07T13:27:20;-2.41;86.11
69335;SHT31;56477;52.742;15.242;2024-01-07T13:29:47;-2.41;85.87
69335;SHT31;56477;52.742;15.242;2024-01-07T13:32:14;-2.41;85.92
69335;SHT31;56477;52.742;15.242;2024-01-07T13:34:43;-2.47;86.21
69335;SHT31;56477;52.742;15.242;2024-01-07T13:37:09;-2.42;86.05
69335;SHT31;56477;52.742;15.242;2024-01-07T13:39:37;-2.47;86.24
69335;SHT31;56477;52.742;15.242;2024-01-07T13:42:03;-2.49;86.93
69335;SHT31;56477;52.742;15.242;2024-01-07T13:44:30;-2.42;86.55
69335;SHT31;56477;52.742;15.242;2024-01-07T13:46:56;-2.42;86.31
69335;SHT31;56477;52.742;15.242;2024-01-07T13:49:22;-2.48;86.21
69335;SHT31;56477;52.742;15.242;2024-01-07T13:51:48;-2.44;85.72
69335;SHT31;56477;52.742;15.242;2024-01-07T13:54:14;-2.54;86.28
69335;SHT31;56477;52.742;15.242;2024-01-07T13:56:42;-2.48;86.65
69335;SHT31;56477;52.742;15.242;2024-01-07T13:59:08;-2.52;86.87
69335;SHT31;56477;52.742;15.242;2024-01-07T14:01:34;-2.48;86.68
69335;SHT31;56477;52.742;15.242;2024-01-07T14:04:00;-2.42;86.08
69335;SHT31;56477;52.742;15.242;2024-01-07T14:06:27;-2.38;86.25
69335;SHT31;56477;52.742;15.242;2024-01-07T14:08:53;-2.51;85.39
69335;SHT31;56477;52.742;15.242;2024-01-07T14:11:19;-2.47;85.46
69335;SHT31;56477;52.742;15.242;2024-01-07T14:13:46;-2.45;85.93
69335;SHT31;56477;52.742;15.242;2024-01-07T14:16:14;-2.51;85.20
69335;SHT31;56477;52.742;15.242;2024-01-07T14:18:41;-2.52;83.59
69335;SHT31;56477;52.742;15.242;2024-01-07T14:21:06;-2.57;82.41
69335;SHT31;56477;52.742;15.242;2024-01-07T14:23:33;-2.62;82.62
69335;SHT31;56477;52.742;15.242;2024-01-07T14:26:00;-2.73;83.41
69335;SHT31;56477;52.742;15.242;2024-01-07T14:28:26;-2.80;83.56
69335;SHT31;56477;52.742;15.242;2024-01-07T14:30:52;-2.76;83.32
69335;SHT31;56477;52.742;15.242;2024-01-07T14:33:18;-2.78;82.67
69335;SHT31;56477;52.742;15.242;2024-01-07T14:35:44;-2.78;82.53
69335;SHT31;56477;52.742;15.242;2024-01-07T14:38:10;-2.85;82.29
69335;SHT31;56477;52.742;15.242;2024-01-07T14:40:36;-2.82;82.71
69335;SHT31;56477;52.742;15.242;2024-01-07T14:43:02;-2.78;82.42
69335;SHT31;56477;52.742;15.242;2024-01-07T14:45:28;-2.83;82.74
69335;SHT31;56477;52.742;15.242;2024-01-07T14:47:54;-2.82;83.10
69335;SHT31;56477;52.742;15.242;2024-01-07T14:50:20;-2.80;82.93
69335;SHT31;56477;52.742;15.242;2024-01-07T14:52:47;-2.80;82.91
69335;SHT31;56477;52.742;15.242;2024-01-07T14:55:13;-2.83;82.55
69335;SHT31;56477;52.742;15.242;2024-01-07T14:57:40;-2.83;82.41
69335;SHT31;56477;52.742;15.242;2024-01-07T15:00:06;-2.80;82.33
69335;SHT31;56477;52.742;15.242;2024-01-07T15:02:34;-2.78;82.10
69335;SHT31;56477;52.742;15.242;2024-01-07T15:05:01;-2.79;82.71
69335;SHT31;56477;52.742;15.242;2024-01-07T15:07:27;-2.76;82.59
69335;SHT31;56477;52.742;15.242;2024-01-07T15:09:53;-2.76;82.64
69335;SHT31;56477;52.742;15.242;2024-01-07T15:12:19;-2.85;82.96
69335;SHT31;56477;52.742;15.242;2024-01-07T15:14:45;-2.80;82.59
69335;SHT31;56477;52.742;15.242;2024-01-07T15:17:11;-2.83;82.81
69335;SHT31;56477;52.742;15.242;2024-01-07T15:19:37;-2.78;83.06
69335;SHT31;56477;52.742;15.242;2024-01-07T15:22:03;-2.82;82.64
69335;SHT31;56477;52.742;15.242;2024-01-07T15:24:29;-2.80;83.06